Time;durP1;ratioP1;P1;durP2;ratioP2;P2;SDS_P1;SDS_P2;PMS_P1;PMS_P2;Temp;Humidity;BMP_temperature;BMP_pressure;BME280_temperature;BME280_humidity;BME280_pressure;Samples;Min_cycle;Max_cycle;Signal;HPM_P1;HPM_P2
2022/11/16 00:02:05;;;;;;;74.95;64.45;;;;;;;6.51;100.00;100912.00;6186526;23;20017;-82
2022/11/16 00:04:32;;;;;;;72.22;61.97;;;;;;;6.57;100.00;100903.38;6186769;23;20021;-83
2022/11/16 00:07:07;;;;;;;63.15;47.50;;;;;;;6.69;100.00;100901.16;6199651;23;20024;-83
2022/11/16 00:09:34;;;;;;;66.70;54.95;;;;;;;6.68;100.00;100907.41;6213434;23;20052;-83
2022/11/16 00:12:05;;;;;;;73.80;62.03;;;;;;;6.78;100.00;100894.81;6213580;23;20025;-84
2022/11/16 00:14:35;;;;;;;72.88;63.90;;;;;;;6.72;100.00;100900.81;6187479;23;20021;-83
2022/11/16 00:17:03;;;;;;;72.50;64.68;;;;;;;6.58;100.00;100891.81;6186191;23;20025;-83
2022/11/16 00:19:29;;;;;;;64.75;48.38;;;;;;;6.49;100.00;100892.06;6186905;23;20033;-82
2022/11/16 00:21:56;;;;;;;58.45;48.75;;;;;;;6.58;100.00;100893.66;6194763;23;20025;-84
2022/11/16 00:24:24;;;;;;;68.97;56.85;;;;;;;6.48;100.00;100893.88;6208527;23;20025;-84
2022/11/16 00:26:57;;;;;;;74.07;61.35;;;;;;;6.60;100.00;100883.75;6208056;23;20048;-84
2022/11/16 00:29:26;;;;;;;67.82;55.85;;;;;;;6.63;100.00;100884.22;6208268;23;20021;-86
2022/11/16 00:32:05;;;;;;;82.15;73.82;;;;;;;6.51;100.00;100882.16;6211681;23;20009;-83
2022/11/16 00:34:32;;;;;;;76.50;68.40;;;;;;;6.57;100.00;100869.06;6212843;23;20039;-83
2022/11/16 00:36:58;;;;;;;77.40;65.82;;;;;;;6.67;100.00;100863.56;6212835;23;20021;-83
2022/11/16 00:39:28;;;;;;;73.22;61.17;;;;;;;6.58;100.00;100864.63;6212252;23;20031;-83
2022/11/16 00:41:55;;;;;;;67.45;50.75;;;;;;;6.70;100.00;100850.00;6212540;23;20051;-82
2022/11/16 00:44:22;;;;;;;67.85;51.38;;;;;;;6.77;100.00;100858.03;6211955;23;20032;-83
2022/11/16 00:46:54;;;;;;;76.65;68.65;;;;;;;6.65;100.00;100849.72;6212494;23;20029;-83
2022/11/16 00:49:22;;;;;;;79.80;71.82;;;;;;;6.72;100.00;100840.09;6212667;23;20031;-83
2022/11/16 00:51:51;;;;;;;84.47;76.20;;;;;;;6.67;100.00;100839.81;6209842;23;20028;-84
2022/11/16 00:54:18;;;;;;;78.60;70.22;;;;;;;6.48;100.00;100835.81;6199492;23;20020;-83
2022/11/16 00:56:44;;;;;;;65.78;48.08;;;;;;;6.48;100.00;100840.28;6186580;23;20021;-83
2022/11/16 00:59:11;;;;;;;64.75;48.58;;;;;;;6.47;100.00;100823.59;6186548;23;20090;-83
2022/11/16 01:01:38;;;;;;;79.85;71.28;;;;;;;6.60;100.00;100823.84;6177054;23;20036;-83
2022/11/16 01:04:05;;;;;;;79.28;69.32;;;;;;;6.51;100.00;100824.09;6186404;23;20095;-83
2022/11/16 01:06:34;;;;;;;83.32;74.55;;;;;;;6.59;100.00;100814.28;6186136;23;20017;-83
2022/11/16 01:09:01;;;;;;;77.70;69.30;;;;;;;6.60;100.00;100807.22;6186676;23;20021;-83
2022/11/16 01:14:12;;;;;;;63.35;48.30;;;;;;;6.72;100.00;100802.28;6186593;23;20040;-83
2022/11/16 01:16:38;;;;;;;61.72;49.00;;;;;;;6.67;100.00;100813.41;6185901;23;20025;-83
2022/11/16 01:19:06;;;;;;;79.18;71.32;;;;;;;6.75;100.00;100812.53;6186224;23;20029;-83
2022/11/16 01:21:35;;;;;;;91.85;83.25;;;;;;;6.62;100.00;100807.84;6185964;23;20013;-83
2022/11/16 01:24:02;;;;;;;76.25;67.47;;;;;;;6.73;100.00;100806.59;6185686;23;20025;-83
2022/11/16 01:26:29;;;;;;;78.90;71.20;;;;;;;6.59;100.00;100797.63;6186271;23;20040;-83
2022/11/16 01:28:57;;;;;;;76.45;68.97;;;;;;;6.54;100.00;100800.00;6206946;23;20025;-84
2022/11/16 01:31:30;;;;;;;79.53;71.55;;;;;;;6.60;100.00;100796.66;6207697;23;20025;-84
2022/11/16 01:34:04;;;;;;;;;;;;;;;6.51;100.00;100787.16;6207466;23;20056;-84
2022/11/16 01:36:32;;;;;;;84.45;76.05;;;;;;;6.25;100.00;100788.31;6206893;23;19943;-84
2022/11/16 01:39:00;;;;;;;83.35;75.47;;;;;;;6.43;100.00;100788.03;6207287;23;20040;-84
2022/11/16 01:41:27;;;;;;;77.68;69.18;;;;;;;6.35;100.00;100791.53;6206680;23;20411;-84
2022/11/16 01:43:56;;;;;;;82.13;74.03;;;;;;;6.46;100.00;100784.22;6206004;23;20040;-85
2022/11/16 01:46:27;;;;;;;77.65;69.32;;;;;;;6.55;100.00;100781.34;6208039;23;20091;-85
2022/11/16 01:48:59;;;;;;;77.25;69.25;;;;;;;6.37;100.00;100783.47;6207862;23;20056;-84
2022/11/16 01:51:26;;;;;;;;;;;;;;;6.43;100.00;100783.56;6210583;23;20480;-83
2022/11/16 01:53:54;;;;;;;62.17;47.90;;;;;;;6.43;100.00;100778.28;6209294;23;20379;-83
2022/11/16 01:56:24;;;;;;;63.45;48.15;;;;;;;6.44;100.00;100773.84;6211389;23;20385;-83
2022/11/16 01:58:53;;;;;;;60.67;48.15;;;;;;;6.25;100.00;100759.31;6211748;23;20025;-83
2022/11/16 02:01:21;;;;;;;64.55;49.15;;;;;;;6.43;100.00;100764.28;6211051;23;20059;-83
2022/11/16 02:03:49;;;;;;;63.58;49.63;;;;;;;6.58;100.00;100762.50;6211659;23;20032;-83
2022/11/16 02:06:30;;;;;;;61.30;50.60;;;;;;;6.58;100.00;100753.78;6211969;23;20001;-83
2022/11/16 02:12:09;;;;;;;64.32;50.80;;;;;;;6.60;100.00;100751.78;6212405;23;20043;-83
2022/11/16 02:14:52;;;;;;;66.97;49.05;;;;;;;6.65;100.00;100758.13;6211950;23;20021;-83
2022/11/16 02:17:35;;;;;;;65.47;52.65;;;;;;;6.49;100.00;100749.56;6211554;23;20021;-83
2022/11/16 02:20:45;;;;;;;66.13;50.30;;;;;;;6.75;100.00;100750.00;6211949;23;20052;-83
2022/11/16 02:23:35;;;;;;;61.53;47.50;;;;;;;6.62;100.00;100755.03;6196804;23;20008;-83
2022/11/16 02:26:22;;;;;;;63.72;50.22;;;;;;;6.60;100.00;100752.59;6211244;23;20021;-83
2022/11/16 02:29:20;;;;;;;61.53;46.92;;;;;;;6.55;100.00;100760.22;6211457;23;20016;-83
2022/11/16 02:31:54;;;;;;;64.63;49.28;;;;;;;6.48;100.00;100758.50;6208468;23;20017;-83
2022/11/16 02:34:27;;;;;;;62.83;48.92;;;;;;;6.46;100.00;100758.66;6210248;23;20073;-83
2022/11/16 02:37:03;;;;;;;70.53;49.58;;;;;;;6.38;100.00;100759.56;6209156;23;20052;-83
2022/11/16 02:39:43;;;;;;;63.30;48.63;;;;;;;6.57;100.00;100752.97;6210659;23;20029;-83
2022/11/16 02:42:17;;;;;;;69.93;48.92;;;;;;;6.41;100.00;100756.56;6210057;23;20029;-83
2022/11/16 02:44:51;;;;;;;64.50;49.20;;;;;;;6.55;100.00;100744.38;6210705;23;20009;-83
2022/11/16 02:47:23;;;;;;;65.03;47.97;;;;;;;6.65;100.00;100742.31;6210625;23;20025;-83
2022/11/16 02:49:57;;;;;;;67.43;48.47;;;;;;;6.61;100.00;100738.41;6210328;23;20035;-83
2022/11/16 02:52:29;;;;;;;69.55;51.47;;;;;;;6.61;100.00;100742.84;6208261;23;20021;-84
2022/11/16 02:54:56;;;;;;;63.28;49.55;;;;;;;6.51;100.00;100731.75;6209305;23;20009;-82
2022/11/16 02:57:40;;;;;;;62.85;47.17;;;;;;;6.39;100.00;100729.53;6210699;23;20025;-83
2022/11/16 03:00:15;;;;;;;65.63;48.72;;;;;;;6.50;100.00;100730.09;6191151;23;20025;-83
2022/11/16 03:02:48;;;;;;;63.40;47.00;;;;;;;6.56;100.00;100727.53;6183654;23;20021;-83
2022/11/16 03:05:20;;;;;;;55.88;45.72;;;;;;;6.48;100.00;100729.47;6185420;23;20017;-85
2022/11/16 03:07:50;;;;;;;60.03;46.47;;;;;;;6.76;100.00;100727.03;6185179;23;20056;-85
2022/11/16 03:13:13;;;;;;;56.60;45.88;;;;;;;6.41;100.00;100713.50;6210268;23;20017;-83
2022/11/16 03:15:44;;;;;;;58.20;44.67;;;;;;;6.49;100.00;100717.91;6210886;23;20009;-83
2022/11/16 03:18:16;;;;;;;62.90;46.67;;;;;;;6.51;100.00;100708.00;6210306;23;20007;-83
2022/11/16 03:20:45;;;;;;;57.17;45.13;;;;;;;6.57;100.00;100715.19;6210832;23;20021;-83
2022/11/16 03:23:13;;;;;;;59.95;46.72;;;;;;;6.50;100.00;100703.69;6203183;23;20036;-83
2022/11/16 03:25:47;;;;;;;59.22;46.88;;;;;;;6.50;100.00;100698.41;6210315;23;20017;-86
2022/11/16 03:28:22;;;;;;;58.15;45.70;;;;;;;6.56;100.00;100684.50;6208569;23;20025;-85
2022/11/16 03:30:55;;;;;;;56.80;45.30;;;;;;;6.46;100.00;100682.13;6194879;23;20025;-84
2022/11/16 03:33:25;;;;;;;58.33;52.22;;;;;;;6.38;100.00;100682.19;6184584;23;20389;-84
2022/11/16 03:35:56;;;;;;;64.32;55.78;;;;;;;6.39;100.00;100674.13;6186808;23;20454;-84
2022/11/16 03:38:26;;;;;;;64.70;58.15;;;;;;;6.45;100.00;100671.78;6186958;23;20092;-84
2022/11/16 03:40:58;;;;;;;64.70;57.53;;;;;;;6.54;100.00;100665.41;6193256;23;20025;-86
2022/11/16 03:43:26;;;;;;;;;;;;;;;6.57;100.00;100657.94;6205851;23;20021;-86
2022/11/16 03:45:55;;;;;;;66.38;59.15;;;;;;;6.58;100.00;100646.38;6186614;23;20312;-83
2022/11/16 03:48:21;;;;;;;70.07;63.00;;;;;;;6.56;100.00;100642.28;6186197;23;20091;-84
2022/11/16 03:50:49;;;;;;;68.88;62.28;;;;;;;6.45;100.00;100637.47;6186716;23;20033;-84
2022/11/16 03:53:16;;;;;;;68.13;61.40;;;;;;;6.50;100.00;100632.47;6187860;23;20075;-85
2022/11/16 03:55:43;;;;;;;64.28;57.95;;;;;;;6.38;100.00;100632.91;6207699;23;20025;-84
2022/11/16 03:58:10;;;;;;;64.20;57.58;;;;;;;6.34;100.00;100636.91;6206409;23;20040;-85
2022/11/16 04:00:37;;;;;;;70.75;63.63;;;;;;;6.25;100.00;100632.69;6205831;23;20056;-85
2022/11/16 04:03:06;;;;;;;67.40;60.80;;;;;;;6.25;100.00;100634.53;6205431;23;20032;-85
2022/11/16 04:25:39;;;;;;;63.95;57.35;;;;;;;6.34;100.00;100636.09;6210300;23;20031;-84
2022/11/16 04:28:13;;;;;;;66.38;59.63;;;;;;;6.39;100.00;100631.09;6209585;23;20025;-85
2022/11/16 04:39:33;;;;;;;50.75;45.25;;;;;;;6.54;100.00;100625.84;6209468;23;20096;-85
2022/11/16 04:42:18;;;;;;;56.15;50.17;;;;;;;6.27;100.00;100619.34;6209416;23;20064;-85
2022/11/16 04:47:44;;;;;;;57.45;46.47;;;;;;;6.36;100.00;100608.53;6170923;23;20061;-84
2022/11/16 04:50:11;;;;;;;52.47;45.38;;;;;;;6.40;100.00;100612.44;6204713;23;20102;-84
2022/11/16 04:52:39;;;;;;;53.60;46.10;;;;;;;6.45;100.00;100605.81;6194388;23;20025;-85
2022/11/16 04:55:06;;;;;;;54.20;46.40;;;;;;;6.43;100.00;100606.78;6197550;23;20001;-85
2022/11/16 04:57:33;;;;;;;55.15;46.17;;;;;;;6.40;100.00;100598.44;6202795;23;20012;-85
2022/11/16 05:00:01;;;;;;;52.42;44.72;;;;;;;6.39;100.00;100594.97;6211363;23;20021;-84
2022/11/16 05:02:28;;;;;;;53.20;43.20;;;;;;;6.19;100.00;100589.41;6213323;23;20024;-85
2022/11/16 05:04:55;;;;;;;52.58;44.20;;;;;;;6.35;100.00;100595.50;6213180;23;20012;-85
2022/11/16 05:07:25;;;;;;;68.18;57.22;;;;;;;6.46;100.00;100602.16;6213027;23;20020;-85
2022/11/16 05:09:53;;;;;;;55.17;45.10;;;;;;;6.37;100.00;100601.44;6211402;23;20024;-85
2022/11/16 05:12:23;;;;;;;56.95;46.63;;;;;;;6.43;100.00;100600.69;6185142;23;20441;-85
2022/11/16 05:14:50;;;;;;;60.03;53.38;;;;;;;6.21;100.00;100607.69;6187243;23;20028;-86
2022/11/16 05:17:24;;;;;;;59.08;52.63;;;;;;;6.42;100.00;100604.34;6201073;23;20017;-87
2022/11/16 05:22:38;;;;;;;51.72;46.08;;;;;;;6.51;100.00;100603.25;6197725;23;20056;-85
2022/11/16 05:25:13;;;;;;;55.15;45.50;;;;;;;6.48;100.00;100606.25;6208018;23;20450;-85
2022/11/16 05:27:40;;;;;;;53.10;44.83;;;;;;;6.39;100.00;100596.81;6061320;23;20030;-85
2022/11/16 05:30:10;;;;;;;53.78;44.70;;;;;;;6.54;100.00;100599.44;6137872;23;20049;-85
2022/11/16 05:32:38;;;;;;;48.05;42.85;;;;;;;6.48;100.00;100594.91;6147862;23;20053;-85
2022/11/16 05:35:05;;;;;;;48.78;42.08;;;;;;;6.54;100.00;100594.16;6148407;23;20036;-85
2022/11/16 05:37:32;;;;;;;51.83;42.47;;;;;;;6.55;100.00;100593.97;6146735;23;20026;-85
2022/11/16 05:39:59;;;;;;;52.38;44.70;;;;;;;6.49;100.00;100596.53;6144914;23;20054;-86
2022/11/16 05:42:29;;;;;;;53.33;42.30;;;;;;;6.34;100.00;100584.13;6141436;23;20025;-86
2022/11/16 05:44:57;;;;;;;51.63;43.03;;;;;;;6.28;100.00;100598.06;6141028;23;20022;-86
2022/11/16 05:47:24;;;;;;;52.83;44.25;;;;;;;6.27;100.00;100585.88;6141409;23;20014;-86
2022/11/16 05:49:51;;;;;;;53.53;46.03;;;;;;;6.52;100.00;100585.59;6142450;23;20042;-86
2022/11/16 05:52:20;;;;;;;52.15;45.35;;;;;;;6.58;100.00;100595.44;6142373;23;20033;-86
2022/11/16 05:54:47;;;;;;;48.72;43.22;;;;;;;6.59;100.00;100599.69;6141322;23;20022;-86
2022/11/16 05:57:14;;;;;;;47.70;42.50;;;;;;;6.52;100.00;100593.53;6142595;23;20033;-86
2022/11/16 05:59:42;;;;;;;50.67;43.78;;;;;;;6.42;100.00;100596.44;6126697;23;20032;-86
2022/11/16 06:02:09;;;;;;;50.10;42.92;;;;;;;6.63;100.00;100595.72;6161035;23;20029;-85
2022/11/16 06:04:36;;;;;;;54.58;43.25;;;;;;;6.61;100.00;100579.22;6145540;23;20030;-85
2022/11/16 06:07:03;;;;;;;59.40;46.83;;;;;;;6.63;100.00;100585.16;6143742;23;20018;-85
2022/11/16 06:09:29;;;;;;;52.00;44.60;;;;;;;6.52;100.00;100582.97;6145051;23;20340;-85
2022/11/16 06:11:57;;;;;;;50.08;43.05;;;;;;;6.68;100.00;100581.94;6144909;23;20026;-85
2022/11/16 06:14:25;;;;;;;48.85;42.40;;;;;;;6.58;100.00;100572.50;6146092;23;20108;-85
2022/11/16 06:17:03;;;;;;;50.00;42.97;;;;;;;6.60;100.00;100567.88;6146231;23;20029;-85
2022/11/16 06:19:29;;;;;;;51.72;43.72;;;;;;;6.68;100.00;100571.41;6146391;23;20026;-84
2022/11/16 06:21:56;;;;;;;52.80;45.75;;;;;;;6.62;100.00;100565.84;6144155;23;20115;-85
2022/11/16 06:24:23;;;;;;;51.17;44.05;;;;;;;6.55;100.00;100572.88;6144792;23;20096;-84
2022/11/16 06:26:50;;;;;;;52.15;43.42;;;;;;;6.65;100.00;100573.38;6145452;23;20025;-84
2022/11/16 06:29:17;;;;;;;51.80;41.95;;;;;;;6.78;100.00;100575.41;6144740;23;20010;-85
2022/11/16 06:31:44;;;;;;;58.35;46.80;;;;;;;6.74;100.00;100571.47;6144443;23;20026;-84
2022/11/16 06:34:13;;;;;;;53.75;47.85;;;;;;;6.83;100.00;100559.00;6145289;23;20032;-84
2022/11/16 06:36:39;;;;;;;54.95;45.85;;;;;;;6.77;100.00;100563.19;6145979;23;20026;-84
2022/11/16 06:39:06;;;;;;;55.03;46.17;;;;;;;6.88;100.00;100554.78;6145519;23;20053;-84
2022/11/16 06:41:33;;;;;;;58.25;47.83;;;;;;;6.80;100.00;100562.00;6144911;23;20034;-84
2022/11/16 06:44:00;;;;;;;52.25;45.75;;;;;;;6.86;100.00;100558.63;6145015;23;20065;-84
2022/11/16 06:46:29;;;;;;;59.80;52.78;;;;;;;6.89;100.00;100550.31;6145828;23;20014;-84
2022/11/16 06:48:58;;;;;;;53.13;47.65;;;;;;;6.63;100.00;100558.75;6144843;23;20057;-84
2022/11/16 06:51:29;;;;;;;57.30;49.55;;;;;;;6.90;100.00;100549.34;6144761;23;20045;-84
2022/11/16 06:53:56;;;;;;;55.30;47.95;;;;;;;6.85;100.00;100538.50;6143255;23;20025;-84
2022/11/16 06:56:24;;;;;;;56.90;50.13;;;;;;;6.77;100.00;100541.25;6143890;23;20022;-84
2022/11/16 06:58:56;;;;;;;60.05;50.00;;;;;;;6.86;100.00;100543.59;6145661;23;20503;-84
2022/11/16 07:01:23;;;;;;;62.47;54.03;;;;;;;6.78;100.00;100540.28;6143187;23;20026;-84
2022/11/16 07:03:50;;;;;;;58.17;48.33;;;;;;;6.67;100.00;100536.25;6143679;23;20022;-84
2022/11/16 07:06:17;;;;;;;61.85;52.08;;;;;;;6.97;100.00;100531.75;6143883;23;20026;-84
2022/11/16 07:08:45;;;;;;;62.50;52.97;;;;;;;6.88;100.00;100528.41;6145576;23;20026;-84
2022/11/16 07:11:14;;;;;;;64.55;55.38;;;;;;;6.95;100.00;100519.72;6143909;23;20018;-84
2022/11/16 07:13:48;;;;;;;65.18;56.55;;;;;;;6.92;100.00;100525.38;6147816;23;20037;-84
2022/11/16 07:16:15;;;;;;;67.43;59.15;;;;;;;6.99;100.00;100523.63;6145434;23;20071;-84
2022/11/16 07:18:50;;;;;;;66.85;59.38;;;;;;;7.07;100.00;100526.97;6146196;23;20077;-85
2022/11/16 07:21:17;;;;;;;66.35;57.20;;;;;;;7.21;100.00;100522.66;6140765;23;20022;-84
2022/11/16 07:23:45;;;;;;;64.57;57.35;;;;;;;6.98;100.00;100512.25;6126539;23;20029;-84
2022/11/16 07:26:12;;;;;;;60.88;53.65;;;;;;;7.09;100.00;100526.78;6126733;23;20439;-85
2022/11/16 07:28:39;;;;;;;63.72;54.17;;;;;;;7.13;100.00;100524.59;6127926;23;20069;-84
2022/11/16 07:31:08;;;;;;;64.63;57.45;;;;;;;7.15;100.00;100515.47;6127254;23;20037;-84
2022/11/16 07:33:35;;;;;;;63.70;53.33;;;;;;;7.20;100.00;100514.88;6127439;23;20439;-84
2022/11/16 07:36:02;;;;;;;58.63;46.40;;;;;;;7.01;100.00;100517.16;6126691;23;20033;-84
2022/11/16 07:38:31;;;;;;;57.97;48.53;;;;;;;7.10;100.00;100512.56;6126385;23;20432;-83
2022/11/16 07:41:01;;;;;;;61.78;47.00;;;;;;;7.13;100.00;100511.38;6127326;23;20093;-84
2022/11/16 07:43:30;;;;;;;67.18;54.47;;;;;;;7.24;100.00;100511.69;6127040;23;20034;-84
2022/11/16 07:45:57;;;;;;;62.13;54.70;;;;;;;7.08;100.00;100504.84;6135769;23;20018;-84
2022/11/16 07:48:24;;;;;;;67.30;59.90;;;;;;;7.27;100.00;100508.69;6145016;23;20040;-84
2022/11/16 07:50:51;;;;;;;64.03;50.60;;;;;;;7.39;100.00;100500.25;6143385;23;20037;-84
2022/11/16 07:53:18;;;;;;;57.30;48.88;;;;;;;7.26;100.00;100507.06;6142776;23;20018;-85
2022/11/16 07:55:51;;;;;;;62.50;48.13;;;;;;;7.39;100.00;100509.00;6140976;23;20050;-85
2022/11/16 07:58:22;;;;;;;67.15;57.53;;;;;;;7.49;100.00;100498.09;6140084;23;20021;-85
2022/11/16 08:00:49;;;;;;;73.85;65.97;;;;;;;7.39;100.00;100508.19;6139919;23;20057;-85
2022/11/16 08:03:18;;;;;;;58.63;52.17;;;;;;;7.48;100.00;100502.56;6145255;23;20423;-84
2022/11/16 08:05:45;;;;;;;58.60;52.15;;;;;;;7.20;100.00;100502.53;6144357;23;20085;-84
2022/11/16 08:08:12;;;;;;;63.40;54.65;;;;;;;7.31;100.00;100503.81;6143463;23;20025;-84
2022/11/16 08:10:39;;;;;;;60.28;53.63;;;;;;;7.54;100.00;100507.09;6144404;23;20017;-84
2022/11/16 08:13:06;;;;;;;63.10;56.20;;;;;;;7.53;100.00;100507.25;6144684;23;20085;-84
2022/11/16 08:15:34;;;;;;;59.13;52.60;;;;;;;7.46;100.00;100507.22;6142740;23;20363;-84
2022/11/16 08:18:00;;;;;;;56.78;49.05;;;;;;;7.57;100.00;100508.53;6143463;23;20033;-84
2022/11/16 08:20:27;;;;;;;63.15;51.15;;;;;;;7.56;100.00;100507.72;6144790;23;20028;-84
2022/11/16 08:22:59;;;;;;;66.57;56.47;;;;;;;7.48;100.00;100501.75;6143893;23;20033;-84
2022/11/16 08:25:26;;;;;;;66.97;58.33;;;;;;;7.64;100.00;100503.28;6143279;23;20041;-84
2022/11/16 08:27:52;;;;;;;71.22;63.95;;;;;;;7.27;100.00;100497.31;6144742;23;20022;-84
2022/11/16 08:30:19;;;;;;;63.88;56.97;;;;;;;7.37;100.00;100497.78;6144928;23;20022;-84
2022/11/16 08:32:47;;;;;;;65.20;58.25;;;;;;;7.47;100.00;100498.28;6142951;23;20076;-84
2022/11/16 08:35:14;;;;;;;68.85;61.45;;;;;;;7.54;100.00;100499.16;6145149;23;20451;-84
2022/11/16 08:37:41;;;;;;;66.95;57.45;;;;;;;7.54;100.00;100493.88;6143643;23;20018;-84
2022/11/16 08:40:13;;;;;;;65.13;56.70;;;;;;;7.33;100.00;100493.91;6144854;23;20057;-84
2022/11/16 08:42:42;;;;;;;63.42;52.13;;;;;;;7.36;100.00;100495.34;6144826;23;20018;-84
2022/11/16 08:45:16;;;;;;;67.25;53.35;;;;;;;7.45;100.00;100486.28;6142076;23;20080;-84
2022/11/16 08:47:52;;;;;;;68.85;51.03;;;;;;;7.24;100.00;100481.81;6152022;23;20002;-83
2022/11/16 08:50:19;;;;;;;67.95;52.55;;;;;;;7.52;100.00;100485.31;6143495;23;20033;-84
2022/11/16 08:52:48;;;;;;;64.28;53.08;;;;;;;7.58;100.00;100475.81;6142979;23;20089;-84
2022/11/16 08:55:17;;;;;;;72.63;56.03;;;;;;;7.53;100.00;100470.25;6143721;23;20080;-84
2022/11/16 08:57:44;;;;;;;75.57;58.33;;;;;;;7.84;100.00;100474.34;6144234;23;20049;-84
2022/11/16 09:00:14;;;;;;;67.25;52.67;;;;;;;7.75;100.00;100469.22;6144526;23;20056;-84
2022/11/16 09:02:41;;;;;;;69.03;54.50;;;;;;;7.54;100.00;100470.09;6144265;23;20049;-84
2022/11/16 09:05:11;;;;;;;69.78;55.22;;;;;;;7.55;100.00;100468.25;6143861;23;20014;-84
2022/11/16 09:07:38;;;;;;;71.20;56.72;;;;;;;7.55;100.00;100470.91;6143673;23;20436;-84
2022/11/16 09:10:06;;;;;;;75.25;55.83;;;;;;;7.38;100.00;100467.69;6144809;23;20082;-84
2022/11/16 09:12:36;;;;;;;73.30;54.53;;;;;;;7.75;100.00;100473.69;6143422;23;20088;-84
2022/11/16 09:15:06;;;;;;;79.60;62.17;;;;;;;7.48;100.00;100470.84;6143998;23;20022;-84
2022/11/16 09:17:34;;;;;;;70.85;51.97;;;;;;;7.34;100.00;100469.91;6143717;23;20360;-84
2022/11/16 09:20:01;;;;;;;79.07;55.88;;;;;;;7.38;100.00;100464.25;6143773;23;20519;-84
2022/11/16 09:22:29;;;;;;;79.30;59.47;;;;;;;7.79;100.00;100462.53;6142779;23;20057;-84
2022/11/16 09:24:56;;;;;;;77.15;60.22;;;;;;;7.64;100.00;100451.25;6142894;23;20089;-84
2022/11/16 09:27:23;;;;;;;81.88;61.20;;;;;;;7.74;100.00;100453.53;6142828;23;20431;-84
2022/11/16 09:29:50;;;;;;;74.78;56.10;;;;;;;7.65;100.00;100450.22;6144149;23;20348;-83
2022/11/16 10:41:24;;;;;;;84.25;62.63;;;;;;;7.73;100.00;100338.25;6147750;23;20012;-84
2022/11/16 10:43:51;;;;;;;95.22;65.30;;;;;;;7.98;100.00;100338.53;6152369;23;20034;-83
2022/11/16 10:46:26;;;;;;;85.30;60.83;;;;;;;8.04;100.00;100343.84;6150733;23;20009;-84
2022/11/16 10:49:06;;;;;;;85.65;60.67;;;;;;;8.26;100.00;100333.97;6153082;23;20021;-84
2022/11/16 10:51:38;;;;;;;94.63;65.97;;;;;;;8.35;100.00;100318.72;6152772;23;20030;-84
2022/11/16 10:54:11;;;;;;;;;;;;;;;8.37;100.00;100323.78;6102358;23;20053;-83
2022/11/16 10:56:41;;;;;;;93.90;63.75;;;;;;;8.54;100.00;100322.44;6153629;23;19900;-83
2022/11/16 10:59:11;;;;;;;89.50;63.08;;;;;;;8.23;100.00;100321.13;6148742;23;20049;-85
2022/11/16 11:01:39;;;;;;;88.22;64.32;;;;;;;8.06;100.00;100319.84;6143257;23;20053;-84
2022/11/16 11:04:30;;;;;;;105.88;68.63;;;;;;;8.20;100.00;100315.41;6135693;23;20026;-85
2022/11/16 11:06:59;;;;;;;93.70;66.57;;;;;;;8.20;100.00;100315.41;6120629;23;20062;-84
2022/11/16 11:09:35;;;;;;;90.32;67.45;;;;;;;8.09;100.00;100308.06;6153419;23;20062;-84
2022/11/16 11:15:22;;;;;;;95.13;65.18;;;;;;;8.54;100.00;100300.44;6147547;23;20057;-85
2022/11/16 11:17:50;;;;;;;93.18;66.07;;;;;;;8.66;100.00;100294.34;6146605;23;20029;-85
2022/11/16 11:20:26;;;;;;;93.25;64.07;;;;;;;8.42;100.00;100290.44;6145621;23;20049;-85
2022/11/16 11:22:56;;;;;;;91.70;66.10;;;;;;;8.66;100.00;100285.59;6147953;23;20018;-85
2022/11/16 11:25:25;;;;;;;95.57;68.30;;;;;;;8.62;100.00;100284.34;6146465;23;20405;-85
2022/11/16 11:28:07;;;;;;;88.85;65.72;;;;;;;8.87;100.00;100280.06;6148897;23;20021;-85
2022/11/16 11:30:39;;;;;;;89.10;64.05;;;;;;;8.69;100.00;100293.13;6146404;23;20029;-85
2022/11/16 11:33:11;;;;;;;89.78;66.70;;;;;;;8.78;100.00;100285.78;6146882;23;20022;-85
2022/11/16 11:35:38;;;;;;;87.07;65.18;;;;;;;8.96;100.00;100285.97;6148307;23;20022;-85
2022/11/16 11:38:05;;;;;;;90.00;65.70;;;;;;;8.66;100.00;100275.81;6146770;23;20026;-85
2022/11/16 11:40:32;;;;;;;86.63;65.32;;;;;;;8.46;100.00;100277.63;6146525;23;20332;-85
2022/11/16 11:43:02;;;;;;;85.95;59.45;;;;;;;8.69;100.00;100280.69;6147047;23;20026;-85
2022/11/16 11:45:38;;;;;;;78.93;57.85;;;;;;;8.79;100.00;100266.22;6147370;23;20348;-85
2022/11/16 11:48:14;;;;;;;97.28;80.50;;;;;;;9.16;100.00;100268.19;6146254;23;20026;-85
2022/11/16 11:50:50;;;;;;;84.65;64.25;;;;;;;8.73;100.00;100261.75;6141409;23;20488;-84
2022/11/16 11:53:31;;;;;;;87.85;66.68;;;;;;;9.01;100.00;100272.91;6142007;23;20053;-84
2022/11/16 11:55:59;;;;;;;84.88;63.88;;;;;;;8.98;100.00;100264.56;6140767;23;20102;-85
2022/11/16 11:58:31;;;;;;;77.85;59.75;;;;;;;8.58;100.00;100262.75;6143716;23;20566;-84
2022/11/16 12:01:17;;;;;;;77.10;59.67;;;;;;;9.06;100.00;100270.47;6145966;23;20022;-85
2022/11/16 12:04:06;;;;;;;76.68;58.53;;;;;;;9.21;100.00;100254.34;6145934;23;20368;-85
2022/11/16 12:06:45;;;;;;;82.97;64.75;;;;;;;9.29;100.00;100259.41;6144660;23;20084;-84
2022/11/16 12:09:30;;;;;;;80.75;63.70;;;;;;;8.88;100.00;100259.69;6151482;23;20061;-84
2022/11/16 12:12:12;;;;;;;81.05;61.45;;;;;;;9.50;100.00;100250.38;6150538;23;20423;-84
2022/11/16 12:15:08;;;;;;;79.78;60.30;;;;;;;9.32;100.00;100245.75;6151199;23;20036;-84
2022/11/16 12:17:57;;;;;;;79.00;59.70;;;;;;;9.22;100.00;100245.34;6149927;23;20040;-84
2022/11/16 12:20:38;;;;;;;84.40;62.70;;;;;;;9.32;100.00;100234.31;6150427;23;20010;-84
2022/11/16 12:23:31;;;;;;;80.63;64.60;;;;;;;9.83;100.00;100234.31;6151455;23;20006;-84
2022/11/16 12:26:05;;;;;;;73.43;59.58;;;;;;;9.55;100.00;100223.22;6148317;23;20022;-84
2022/11/16 12:28:47;;;;;;;71.53;61.05;;;;;;;9.66;100.00;100224.41;6129915;23;20447;-84
2022/11/16 12:31:33;;;;;;;;;;;;;;;11.00;100.00;100221.34;6131368;23;20025;-84
2022/11/16 12:34:15;;;;;;;74.53;66.68;;;;;;;11.57;100.00;100215.78;6150694;23;19917;-84
2022/11/16 12:36:54;;;;;;;70.45;61.83;;;;;;;12.85;100.00;100205.63;6134632;23;20033;-82
2022/11/16 12:39:24;;;;;;;65.35;58.40;;;;;;;13.13;100.00;100190.75;6126784;23;20026;-84
2022/11/16 12:42:14;;;;;;;63.72;57.05;;;;;;;14.38;100.00;100187.19;6125830;23;20017;-82
2022/11/16 12:45:06;;;;;;;64.25;57.80;;;;;;;14.02;100.00;100185.81;6138254;23;20026;-83
2022/11/16 12:47:47;;;;;;;68.18;61.45;;;;;;;12.23;100.00;100186.63;6128373;23;20006;-83
2022/11/16 12:50:30;;;;;;;64.53;58.20;;;;;;;14.02;100.00;100179.66;6151935;23;20421;-84
2022/11/16 12:53:20;;;;;;;67.32;60.60;;;;;;;12.56;100.00;100186.09;6151692;23;20032;-83
2022/11/16 12:55:54;;;;;;;67.10;59.88;;;;;;;13.52;100.00;100186.50;6149662;23;20013;-83
2022/11/16 12:58:29;;;;;;;64.45;57.83;;;;;;;12.88;100.00;100185.72;6127125;23;20034;-82
2022/11/16 13:01:08;;;;;;;64.90;58.10;;;;;;;12.65;100.00;100190.03;6127223;23;20026;-82
2022/11/16 13:03:42;;;;;;;64.35;57.85;;;;;;;12.96;100.00;100191.50;6126638;23;20025;-84
2022/11/16 13:06:13;;;;;;;66.60;59.95;;;;;;;13.50;100.00;100177.94;6127058;23;20510;-83
2022/11/16 13:08:53;;;;;;;65.03;58.30;;;;;;;13.90;100.00;100171.72;6134668;23;20022;-83
2022/11/16 13:11:25;;;;;;;65.32;58.58;;;;;;;12.91;100.00;100177.25;6150198;23;20036;-83
2022/11/16 13:13:57;;;;;;;66.82;59.95;;;;;;;12.55;100.00;100179.13;6145729;23;20462;-85
2022/11/16 13:16:27;;;;;;;64.50;57.88;;;;;;;12.99;100.00;100179.56;6140854;23;20026;-83
2022/11/16 13:18:58;;;;;;;65.13;58.30;;;;;;;11.13;100.00;100182.38;6152700;23;20022;-82
2022/11/16 13:21:40;;;;;;;68.93;61.40;;;;;;;11.59;100.00;100179.16;6154424;23;20073;-82
2022/11/16 13:24:25;;;;;;;67.93;60.20;;;;;;;11.13;100.00;100175.19;6154288;23;20022;-83